sensor_id;sensor_type;location;lat;lon;timestamp;P1;durP1;ratioP1;P2;durP2;ratioP2
10150;SDS011;5116;52.318;4.644;2022-10-16T00:00:02;0.77;;;0.77;;
10150;SDS011;5116;52.318;4.644;2022-10-16T00:02:30;0.80;;;0.80;;
10150;SDS011;5116;52.318;4.644;2022-10-16T00:04:57;0.80;;;0.80;;
10150;SDS011;5116;52.318;4.644;2022-10-16T00:07:25;0.80;;;0.80;;
10150;SDS011;5116;52.318;4.644;2022-10-16T00:09:54;0.80;;;0.80;;
10150;SDS011;5116;52.318;4.644;2022-10-16T00:12:21;0.80;;;0.80;;
10150;SDS011;5116;52.318;4.644;2022-10-16T00:14:49;1.83;;;1.00;;
10150;SDS011;5116;52.318;4.644;2022-10-16T00:17:16;0.80;;;0.80;;
10150;SDS011;5116;52.318;4.644;2022-10-16T00:19:43;0.83;;;0.83;;
10150;SDS011;5116;52.318;4.644;2022-10-16T00:22:29;3.03;;;1.00;;
10150;SDS011;5116;52.318;4.644;2022-10-16T00:24:57;0.80;;;0.80;;
10150;SDS011;5116;52.318;4.644;2022-10-16T00:27:24;0.90;;;0.90;;
10150;SDS011;5116;52.318;4.644;2022-10-16T00:29:52;0.90;;;0.90;;
10150;SDS011;5116;52.318;4.644;2022-10-16T00:32:19;0.90;;;0.90;;
10150;SDS011;5116;52.318;4.644;2022-10-16T00:34:46;1.00;;;1.00;;
10150;SDS011;5116;52.318;4.644;2022-10-16T00:37:14;0.93;;;0.93;;
10150;SDS011;5116;52.318;4.644;2022-10-16T00:39:41;0.80;;;0.80;;
10150;SDS011;5116;52.318;4.644;2022-10-16T00:42:11;0.90;;;0.90;;
10150;SDS011;5116;52.318;4.644;2022-10-16T00:47:13;1.00;;;1.00;;
10150;SDS011;5116;52.318;4.644;2022-10-16T00:49:42;0.80;;;0.80;;
10150;SDS011;5116;52.318;4.644;2022-10-16T00:52:10;1.00;;;1.00;;
10150;SDS011;5116;52.318;4.644;2022-10-16T00:54:37;0.80;;;0.80;;
10150;SDS011;5116;52.318;4.644;2022-10-16T00:57:05;0.90;;;0.90;;
10150;SDS011;5116;52.318;4.644;2022-10-16T00:59:37;0.90;;;0.90;;
10150;SDS011;5116;52.318;4.644;2022-10-16T01:02:06;0.70;;;0.70;;
10150;SDS011;5116;52.318;4.644;2022-10-16T01:04:36;0.80;;;0.80;;
10150;SDS011;5116;52.318;4.644;2022-10-16T01:09:40;0.90;;;0.90;;
10150;SDS011;5116;52.318;4.644;2022-10-16T01:12:10;0.70;;;0.70;;
10150;SDS011;5116;52.318;4.644;2022-10-16T01:17:23;0.70;;;0.70;;
10150;SDS011;5116;52.318;4.644;2022-10-16T01:22:31;0.90;;;0.90;;
10150;SDS011;5116;52.318;4.644;2022-10-16T01:25:00;0.70;;;0.70;;
10150;SDS011;5116;52.318;4.644;2022-10-16T01:27:32;1.20;;;1.10;;
10150;SDS011;5116;52.318;4.644;2022-10-16T01:32:31;0.60;;;0.60;;
10150;SDS011;5116;52.318;4.644;2022-10-16T01:35:04;0.70;;;0.70;;
10150;SDS011;5116;52.318;4.644;2022-10-16T01:37:34;0.70;;;0.70;;
10150;SDS011;5116;52.318;4.644;2022-10-16T01:40:02;0.80;;;0.80;;
10150;SDS011;5116;52.318;4.644;2022-10-16T01:42:34;0.80;;;0.80;;
10150;SDS011;5116;52.318;4.644;2022-10-16T01:45:08;0.83;;;0.83;;
10150;SDS011;5116;52.318;4.644;2022-10-16T01:48:05;0.70;;;0.70;;
10150;SDS011;5116;52.318;4.644;2022-10-16T01:50:37;0.60;;;0.60;;
10150;SDS011;5116;52.318;4.644;2022-10-16T01:53:06;0.70;;;0.70;;
10150;SDS011;5116;52.318;4.644;2022-10-16T01:55:35;0.80;;;0.80;;
10150;SDS011;5116;52.318;4.644;2022-10-16T01:58:04;0.77;;;0.77;;
10150;SDS011;5116;52.318;4.644;2022-10-16T02:00:32;0.80;;;0.80;;
10150;SDS011;5116;52.318;4.644;2022-10-16T02:03:01;1.07;;;0.70;;
10150;SDS011;5116;52.318;4.644;2022-10-16T02:05:30;0.83;;;0.83;;
10150;SDS011;5116;52.318;4.644;2022-10-16T02:07:58;0.70;;;0.70;;
10150;SDS011;5116;52.318;4.644;2022-10-16T02:10:31;0.80;;;0.80;;
10150;SDS011;5116;52.318;4.644;2022-10-16T02:13:06;0.60;;;0.60;;
10150;SDS011;5116;52.318;4.644;2022-10-16T02:15:35;1.03;;;0.90;;
10150;SDS011;5116;52.318;4.644;2022-10-16T02:18:05;0.80;;;0.80;;
10150;SDS011;5116;52.318;4.644;2022-10-16T02:20:35;0.80;;;0.80;;
10150;SDS011;5116;52.318;4.644;2022-10-16T02:23:05;0.90;;;0.90;;
10150;SDS011;5116;52.318;4.644;2022-10-16T02:25:35;0.80;;;0.80;;
10150;SDS011;5116;52.318;4.644;2022-10-16T02:28:08;0.77;;;0.73;;
10150;SDS011;5116;52.318;4.644;2022-10-16T02:30:40;0.80;;;0.80;;
10150;SDS011;5116;52.318;4.644;2022-10-16T02:33:09;0.80;;;0.80;;
10150;SDS011;5116;52.318;4.644;2022-10-16T02:35:37;0.70;;;0.70;;
10150;SDS011;5116;52.318;4.644;2022-10-16T02:38:04;0.73;;;0.73;;
10150;SDS011;5116;52.318;4.644;2022-10-16T02:40:32;0.70;;;0.70;;
10150;SDS011;5116;52.318;4.644;2022-10-16T02:43:00;0.80;;;0.80;;
10150;SDS011;5116;52.318;4.644;2022-10-16T02:45:30;0.70;;;0.70;;
10150;SDS011;5116;52.318;4.644;2022-10-16T02:47:57;0.70;;;0.70;;
10150;SDS011;5116;52.318;4.644;2022-10-16T02:50:25;0.77;;;0.77;;
10150;SDS011;5116;52.318;4.644;2022-10-16T02:52:52;0.80;;;0.80;;
10150;SDS011;5116;52.318;4.644;2022-10-16T02:55:19;0.97;;;0.97;;
10150;SDS011;5116;52.318;4.644;2022-10-16T02:57:46;0.60;;;0.60;;
10150;SDS011;5116;52.318;4.644;2022-10-16T03:00:15;0.70;;;0.70;;
10150;SDS011;5116;52.318;4.644;2022-10-16T03:02:42;0.80;;;0.80;;
10150;SDS011;5116;52.318;4.644;2022-10-16T03:05:10;0.80;;;0.80;;
10150;SDS011;5116;52.318;4.644;2022-10-16T03:07:38;1.13;;;1.03;;
10150;SDS011;5116;52.318;4.644;2022-10-16T03:10:05;0.80;;;0.80;;
10150;SDS011;5116;52.318;4.644;2022-10-16T03:12:33;0.77;;;0.77;;
10150;SDS011;5116;52.318;4.644;2022-10-16T03:15:00;1.00;;;0.87;;
10150;SDS011;5116;52.318;4.644;2022-10-16T03:17:27;1.07;;;1.07;;
10150;SDS011;5116;52.318;4.644;2022-10-16T03:19:55;0.93;;;0.93;;
10150;SDS011;5116;52.318;4.644;2022-10-16T03:22:22;0.90;;;0.90;;
10150;SDS011;5116;52.318;4.644;2022-10-16T03:24:49;0.67;;;0.67;;
10150;SDS011;5116;52.318;4.644;2022-10-16T03:27:17;0.87;;;0.87;;
10150;SDS011;5116;52.318;4.644;2022-10-16T03:29:44;0.90;;;0.90;;
10150;SDS011;5116;52.318;4.644;2022-10-16T03:32:11;0.80;;;0.80;;
10150;SDS011;5116;52.318;4.644;2022-10-16T03:34:39;0.80;;;0.80;;
10150;SDS011;5116;52.318;4.644;2022-10-16T03:37:06;0.87;;;0.87;;
10150;SDS011;5116;52.318;4.644;2022-10-16T03:39:33;1.50;;;1.07;;
10150;SDS011;5116;52.318;4.644;2022-10-16T03:42:01;0.90;;;0.90;;
10150;SDS011;5116;52.318;4.644;2022-10-16T03:44:28;0.77;;;0.77;;
10150;SDS011;5116;52.318;4.644;2022-10-16T03:46:56;0.90;;;0.90;;
10150;SDS011;5116;52.318;4.644;2022-10-16T03:49:23;0.80;;;0.80;;
10150;SDS011;5116;52.318;4.644;2022-10-16T03:51:50;0.80;;;0.80;;
10150;SDS011;5116;52.318;4.644;2022-10-16T03:54:18;0.90;;;0.90;;
10150;SDS011;5116;52.318;4.644;2022-10-16T03:56:45;0.70;;;0.70;;
10150;SDS011;5116;52.318;4.644;2022-10-16T03:59:12;0.73;;;0.73;;
10150;SDS011;5116;52.318;4.644;2022-10-16T04:01:40;1.03;;;1.03;;
10150;SDS011;5116;52.318;4.644;2022-10-16T04:04:07;0.83;;;0.83;;
10150;SDS011;5116;52.318;4.644;2022-10-16T04:06:34;0.90;;;0.90;;
10150;SDS011;5116;52.318;4.644;2022-10-16T04:09:02;0.80;;;0.80;;
10150;SDS011;5116;52.318;4.644;2022-10-16T04:11:29;0.80;;;0.80;;
10150;SDS011;5116;52.318;4.644;2022-10-16T04:13:57;0.90;;;0.90;;
10150;SDS011;5116;52.318;4.644;2022-10-16T04:16:24;0.90;;;0.90;;
10150;SDS011;5116;52.318;4.644;2022-10-16T04:18:51;0.90;;;0.90;;
10150;SDS011;5116;52.318;4.644;2022-10-16T04:21:19;1.00;;;0.90;;
10150;SDS011;5116;52.318;4.644;2022-10-16T04:23:46;1.00;;;1.00;;
10150;SDS011;5116;52.318;4.644;2022-10-16T04:26:13;0.90;;;0.90;;
10150;SDS011;5116;52.318;4.644;2022-10-16T04:28:41;1.47;;;1.37;;
10150;SDS011;5116;52.318;4.644;2022-10-16T04:31:08;0.80;;;0.80;;
10150;SDS011;5116;52.318;4.644;2022-10-16T04:33:35;0.87;;;0.87;;
10150;SDS011;5116;52.318;4.644;2022-10-16T04:36:03;0.87;;;0.87;;
10150;SDS011;5116;52.318;4.644;2022-10-16T04:38:30;0.80;;;0.80;;
10150;SDS011;5116;52.318;4.644;2022-10-16T04:40:58;0.90;;;0.90;;
10150;SDS011;5116;52.318;4.644;2022-10-16T04:43:26;0.90;;;0.90;;
10150;SDS011;5116;52.318;4.644;2022-10-16T04:45:54;0.90;;;0.90;;
10150;SDS011;5116;52.318;4.644;2022-10-16T04:48:22;0.87;;;0.87;;
10150;SDS011;5116;52.318;4.644;2022-10-16T04:50:50;0.90;;;0.90;;
10150;SDS011;5116;52.318;4.644;2022-10-16T04:53:20;0.93;;;0.93;;
10150;SDS011;5116;52.318;4.644;2022-10-16T04:55:47;0.80;;;0.80;;
10150;SDS011;5116;52.318;4.644;2022-10-16T04:58:15;0.73;;;0.73;;
10150;SDS011;5116;52.318;4.644;2022-10-16T05:00:42;0.80;;;0.80;;
10150;SDS011;5116;52.318;4.644;2022-10-16T05:03:10;0.80;;;0.80;;
10150;SDS011;5116;52.318;4.644;2022-10-16T05:05:41;0.80;;;0.80;;
10150;SDS011;5116;52.318;4.644;2022-10-16T05:08:09;0.93;;;0.93;;
10150;SDS011;5116;52.318;4.644;2022-10-16T05:10:36;0.80;;;0.80;;
10150;SDS011;5116;52.318;4.644;2022-10-16T05:13:03;0.97;;;0.97;;
10150;SDS011;5116;52.318;4.644;2022-10-16T05:15:32;0.90;;;0.90;;
10150;SDS011;5116;52.318;4.644;2022-10-16T05:17:59;0.80;;;0.80;;
10150;SDS011;5116;52.318;4.644;2022-10-16T05:20:26;0.87;;;0.87;;
10150;SDS011;5116;52.318;4.644;2022-10-16T05:22:54;0.97;;;0.97;;
10150;SDS011;5116;52.318;4.644;2022-10-16T05:25:21;1.00;;;1.00;;
10150;SDS011;5116;52.318;4.644;2022-10-16T05:27:48;0.77;;;0.77;;
10150;SDS011;5116;52.318;4.644;2022-10-16T05:30:16;0.93;;;0.93;;
10150;SDS011;5116;52.318;4.644;2022-10-16T05:32:50;0.90;;;0.90;;
10150;SDS011;5116;52.318;4.644;2022-10-16T05:35:17;0.63;;;0.63;;
10150;SDS011;5116;52.318;4.644;2022-10-16T05:37:45;0.73;;;0.73;;
10150;SDS011;5116;52.318;4.644;2022-10-16T05:40:12;0.87;;;0.87;;
10150;SDS011;5116;52.318;4.644;2022-10-16T05:42:40;1.07;;;1.00;;
10150;SDS011;5116;52.318;4.644;2022-10-16T05:45:08;0.80;;;0.80;;
10150;SDS011;5116;52.318;4.644;2022-10-16T05:47:36;1.00;;;1.00;;
10150;SDS011;5116;52.318;4.644;2022-10-16T05:50:03;0.93;;;0.80;;
10150;SDS011;5116;52.318;4.644;2022-10-16T05:52:31;1.20;;;1.10;;
10150;SDS011;5116;52.318;4.644;2022-10-16T05:54:58;1.10;;;1.00;;
10150;SDS011;5116;52.318;4.644;2022-10-16T05:57:25;0.90;;;0.90;;
10150;SDS011;5116;52.318;4.644;2022-10-16T05:59:53;0.87;;;0.87;;
10150;SDS011;5116;52.318;4.644;2022-10-16T06:02:20;0.70;;;0.70;;
10150;SDS011;5116;52.318;4.644;2022-10-16T06:04:48;0.90;;;0.90;;
10150;SDS011;5116;52.318;4.644;2022-10-16T06:07:15;0.80;;;0.80;;
10150;SDS011;5116;52.318;4.644;2022-10-16T06:09:42;0.93;;;0.90;;
10150;SDS011;5116;52.318;4.644;2022-10-16T06:12:09;0.80;;;0.80;;
10150;SDS011;5116;52.318;4.644;2022-10-16T06:14:37;0.90;;;0.90;;
10150;SDS011;5116;52.318;4.644;2022-10-16T06:17:04;0.70;;;0.70;;
10150;SDS011;5116;52.318;4.644;2022-10-16T06:19:32;1.90;;;1.10;;
10150;SDS011;5116;52.318;4.644;2022-10-16T06:21:59;1.20;;;1.10;;
10150;SDS011;5116;52.318;4.644;2022-10-16T06:24:28;0.83;;;0.83;;
10150;SDS011;5116;52.318;4.644;2022-10-16T06:26:56;1.00;;;1.00;;
10150;SDS011;5116;52.318;4.644;2022-10-16T06:29:23;0.90;;;0.90;;
10150;SDS011;5116;52.318;4.644;2022-10-16T06:31:50;0.90;;;0.90;;
10150;SDS011;5116;52.318;4.644;2022-10-16T06:34:19;0.97;;;0.97;;
10150;SDS011;5116;52.318;4.644;2022-10-16T06:36:46;0.80;;;0.80;;
10150;SDS011;5116;52.318;4.644;2022-10-16T06:39:13;1.00;;;1.00;;
10150;SDS011;5116;52.318;4.644;2022-10-16T06:41:41;1.73;;;1.10;;
10150;SDS011;5116;52.318;4.644;2022-10-16T06:44:14;1.20;;;1.20;;
10150;SDS011;5116;52.318;4.644;2022-10-16T06:46:41;0.90;;;0.90;;
10150;SDS011;5116;52.318;4.644;2022-10-16T06:49:09;0.97;;;0.97;;
10150;SDS011;5116;52.318;4.644;2022-10-16T06:51:36;1.03;;;1.00;;
10150;SDS011;5116;52.318;4.644;2022-10-16T06:54:09;1.00;;;1.00;;
10150;SDS011;5116;52.318;4.644;2022-10-16T06:56:36;1.00;;;1.00;;
10150;SDS011;5116;52.318;4.644;2022-10-16T06:59:03;0.97;;;0.97;;
10150;SDS011;5116;52.318;4.644;2022-10-16T07:01:31;0.90;;;0.90;;
10150;SDS011;5116;52.318;4.644;2022-10-16T07:03:59;0.93;;;0.93;;
10150;SDS011;5116;52.318;4.644;2022-10-16T07:06:30;1.10;;;1.00;;
10150;SDS011;5116;52.318;4.644;2022-10-16T07:08:58;1.10;;;1.00;;
10150;SDS011;5116;52.318;4.644;2022-10-16T07:11:25;0.90;;;0.90;;
10150;SDS011;5116;52.318;4.644;2022-10-16T07:13:53;0.90;;;0.90;;
10150;SDS011;5116;52.318;4.644;2022-10-16T07:16:23;1.00;;;1.00;;
10150;SDS011;5116;52.318;4.644;2022-10-16T07:18:50;1.00;;;1.00;;
10150;SDS011;5116;52.318;4.644;2022-10-16T07:21:24;0.93;;;0.93;;
10150;SDS011;5116;52.318;4.644;2022-10-16T07:23:58;1.00;;;1.00;;
10150;SDS011;5116;52.318;4.644;2022-10-16T07:26:28;0.90;;;0.90;;
10150;SDS011;5116;52.318;4.644;2022-10-16T07:28:56;0.90;;;0.90;;
10150;SDS011;5116;52.318;4.644;2022-10-16T07:31:24;0.90;;;0.90;;
10150;SDS011;5116;52.318;4.644;2022-10-16T07:33:52;1.00;;;1.00;;
10150;SDS011;5116;52.318;4.644;2022-10-16T07:36:20;0.93;;;0.93;;
10150;SDS011;5116;52.318;4.644;2022-10-16T07:38:47;1.13;;;1.10;;
10150;SDS011;5116;52.318;4.644;2022-10-16T07:41:18;1.20;;;1.10;;
10150;SDS011;5116;52.318;4.644;2022-10-16T07:43:50;1.15;;;1.10;;
10150;SDS011;5116;52.318;4.644;2022-10-16T07:46:17;1.03;;;0.97;;
10150;SDS011;5116;52.318;4.644;2022-10-16T07:48:45;0.77;;;0.77;;
10150;SDS011;5116;52.318;4.644;2022-10-16T07:51:14;0.97;;;0.97;;
10150;SDS011;5116;52.318;4.644;2022-10-16T07:53:42;0.87;;;0.87;;
10150;SDS011;5116;52.318;4.644;2022-10-16T07:56:09;0.97;;;0.80;;
10150;SDS011;5116;52.318;4.644;2022-10-16T07:58:38;1.00;;;1.00;;
10150;SDS011;5116;52.318;4.644;2022-10-16T08:01:06;1.00;;;1.00;;
10150;SDS011;5116;52.318;4.644;2022-10-16T08:03:34;1.20;;;1.10;;
10150;SDS011;5116;52.318;4.644;2022-10-16T08:06:01;0.90;;;0.90;;
10150;SDS011;5116;52.318;4.644;2022-10-16T08:08:29;1.10;;;1.10;;
10150;SDS011;5116;52.318;4.644;2022-10-16T08:10:57;1.03;;;1.03;;
10150;SDS011;5116;52.318;4.644;2022-10-16T08:13:24;0.80;;;0.80;;
10150;SDS011;5116;52.318;4.644;2022-10-16T08:15:53;0.80;;;0.80;;
10150;SDS011;5116;52.318;4.644;2022-10-16T08:18:21;1.60;;;1.10;;
10150;SDS011;5116;52.318;4.644;2022-10-16T08:20:54;2.13;;;1.00;;
10150;SDS011;5116;52.318;4.644;2022-10-16T08:23:21;0.73;;;0.73;;
10150;SDS011;5116;52.318;4.644;2022-10-16T08:25:49;1.90;;;1.23;;
10150;SDS011;5116;52.318;4.644;2022-10-16T08:28:16;1.40;;;1.00;;
10150;SDS011;5116;52.318;4.644;2022-10-16T08:30:44;2.03;;;1.20;;
10150;SDS011;5116;52.318;4.644;2022-10-16T08:33:11;1.03;;;0.80;;
10150;SDS011;5116;52.318;4.644;2022-10-16T08:35:38;0.80;;;0.80;;
10150;SDS011;5116;52.318;4.644;2022-10-16T08:38:05;1.00;;;1.00;;
10150;SDS011;5116;52.318;4.644;2022-10-16T08:40:33;1.07;;;1.00;;
10150;SDS011;5116;52.318;4.644;2022-10-16T08:48:40;0.90;;;0.90;;
10150;SDS011;5116;52.318;4.644;2022-10-16T08:51:11;1.27;;;1.17;;
10150;SDS011;5116;52.318;4.644;2022-10-16T08:56:24;1.10;;;1.10;;
10150;SDS011;5116;52.318;4.644;2022-10-16T08:58:52;2.43;;;1.20;;
10150;SDS011;5116;52.318;4.644;2022-10-16T09:01:39;1.07;;;1.00;;
10150;SDS011;5116;52.318;4.644;2022-10-16T09:06:55;0.80;;;0.80;;
10150;SDS011;5116;52.318;4.644;2022-10-16T09:12:19;1.00;;;1.00;;
10150;SDS011;5116;52.318;4.644;2022-10-16T09:22:27;0.90;;;0.90;;
10150;SDS011;5116;52.318;4.644;2022-10-16T09:24:56;0.80;;;0.80;;
10150;SDS011;5116;52.318;4.644;2022-10-16T09:27:27;0.90;;;0.90;;
10150;SDS011;5116;52.318;4.644;2022-10-16T09:29:55;0.87;;;0.87;;
10150;SDS011;5116;52.318;4.644;2022-10-16T09:32:25;0.83;;;0.83;;
10150;SDS011;5116;52.318;4.644;2022-10-16T09:34:54;0.93;;;0.93;;
10150;SDS011;5116;52.318;4.644;2022-10-16T09:37:23;0.83;;;0.83;;
10150;SDS011;5116;52.318;4.644;2022-10-16T09:39:52;1.00;;;1.00;;
10150;SDS011;5116;52.318;4.644;2022-10-16T09:42:21;0.90;;;0.90;;
10150;SDS011;5116;52.318;4.644;2022-10-16T09:44:49;1.60;;;0.93;;
10150;SDS011;5116;52.318;4.644;2022-10-16T09:47:21;0.90;;;0.90;;
10150;SDS011;5116;52.318;4.644;2022-10-16T09:50:00;1.60;;;1.10;;
10150;SDS011;5116;52.318;4.644;2022-10-16T09:52:29;2.37;;;0.90;;
10150;SDS011;5116;52.318;4.644;2022-10-16T09:55:01;0.90;;;0.90;;
10150;SDS011;5116;52.318;4.644;2022-10-16T09:57:28;0.83;;;0.83;;
10150;SDS011;5116;52.318;4.644;2022-10-16T09:59:58;1.00;;;1.00;;
10150;SDS011;5116;52.318;4.644;2022-10-16T10:02:29;0.90;;;0.90;;
10150;SDS011;5116;52.318;4.644;2022-10-16T10:04:57;1.53;;;1.20;;
10150;SDS011;5116;52.318;4.644;2022-10-16T10:07:26;1.30;;;1.00;;
10150;SDS011;5116;52.318;4.644;2022-10-16T10:09:55;1.00;;;1.00;;
10150;SDS011;5116;52.318;4.644;2022-10-16T10:12:24;0.90;;;0.90;;
10150;SDS011;5116;52.318;4.644;2022-10-16T10:14:53;1.63;;;1.00;;
10150;SDS011;5116;52.318;4.644;2022-10-16T10:17:22;1.10;;;1.00;;
10150;SDS011;5116;52.318;4.644;2022-10-16T10:19:54;1.20;;;1.10;;
10150;SDS011;5116;52.318;4.644;2022-10-16T10:25:12;1.37;;;1.27;;
10150;SDS011;5116;52.318;4.644;2022-10-16T10:30:24;1.20;;;1.10;;
10150;SDS011;5116;52.318;4.644;2022-10-16T10:32:56;1.30;;;1.20;;
10150;SDS011;5116;52.318;4.644;2022-10-16T10:35:31;1.00;;;1.00;;
10150;SDS011;5116;52.318;4.644;2022-10-16T10:40:49;0.90;;;0.90;;
10150;SDS011;5116;52.318;4.644;2022-10-16T10:43:35;1.00;;;1.00;;
10150;SDS011;5116;52.318;4.644;2022-10-16T10:46:05;0.70;;;0.70;;
10150;SDS011;5116;52.318;4.644;2022-10-16T10:51:12;0.80;;;0.80;;
10150;SDS011;5116;52.318;4.644;2022-10-16T10:57:00;3.40;;;1.30;;
10150;SDS011;5116;52.318;4.644;2022-10-16T11:05:14;2.60;;;1.10;;
10150;SDS011;5116;52.318;4.644;2022-10-16T11:07:45;1.00;;;1.00;;
10150;SDS011;5116;52.318;4.644;2022-10-16T11:10:20;1.30;;;1.20;;
10150;SDS011;5116;52.318;4.644;2022-10-16T11:12:50;1.20;;;1.10;;
10150;SDS011;5116;52.318;4.644;2022-10-16T11:15:21;1.10;;;1.10;;
10150;SDS011;5116;52.318;4.644;2022-10-16T11:18:15;1.23;;;1.17;;
10150;SDS011;5116;52.318;4.644;2022-10-16T11:20:40;1.37;;;1.30;;
10150;SDS011;5116;52.318;4.644;2022-10-16T11:23:11;1.20;;;1.10;;
10150;SDS011;5116;52.318;4.644;2022-10-16T11:25:42;1.30;;;1.20;;
10150;SDS011;5116;52.318;4.644;2022-10-16T11:28:11;2.73;;;1.60;;
10150;SDS011;5116;52.318;4.644;2022-10-16T11:31:13;1.70;;;1.60;;
10150;SDS011;5116;52.318;4.644;2022-10-16T11:33:34;1.70;;;1.60;;
10150;SDS011;5116;52.318;4.644;2022-10-16T11:46:37;1.50;;;1.40;;
10150;SDS011;5116;52.318;4.644;2022-10-16T11:49:25;1.60;;;1.50;;
10150;SDS011;5116;52.318;4.644;2022-10-16T11:52:06;1.50;;;1.40;;
10150;SDS011;5116;52.318;4.644;2022-10-16T11:54:37;1.97;;;1.87;;
10150;SDS011;5116;52.318;4.644;2022-10-16T11:57:17;1.80;;;1.70;;
10150;SDS011;5116;52.318;4.644;2022-10-16T11:59:52;1.40;;;1.30;;
10150;SDS011;5116;52.318;4.644;2022-10-16T12:04:51;1.70;;;1.60;;
10150;SDS011;5116;52.318;4.644;2022-10-16T12:07:27;2.60;;;1.50;;
10150;SDS011;5116;52.318;4.644;2022-10-16T12:09:55;1.50;;;1.40;;
10150;SDS011;5116;52.318;4.644;2022-10-16T12:15:18;1.47;;;1.37;;
10150;SDS011;5116;52.318;4.644;2022-10-16T12:18:07;3.43;;;1.60;;
10150;SDS011;5116;52.318;4.644;2022-10-16T12:20:35;1.70;;;1.60;;
10150;SDS011;5116;52.318;4.644;2022-10-16T12:23:04;1.73;;;1.60;;
10150;SDS011;5116;52.318;4.644;2022-10-16T12:25:33;1.80;;;1.70;;
10150;SDS011;5116;52.318;4.644;2022-10-16T12:28:03;1.50;;;1.40;;
10150;SDS011;5116;52.318;4.644;2022-10-16T12:30:32;1.70;;;1.60;;
10150;SDS011;5116;52.318;4.644;2022-10-16T12:33:05;2.90;;;1.60;;
10150;SDS011;5116;52.318;4.644;2022-10-16T12:35:34;2.00;;;1.90;;
10150;SDS011;5116;52.318;4.644;2022-10-16T12:38:06;1.43;;;1.40;;
10150;SDS011;5116;52.318;4.644;2022-10-16T12:40:35;1.50;;;1.40;;
10150;SDS011;5116;52.318;4.644;2022-10-16T12:43:13;1.70;;;1.50;;
10150;SDS011;5116;52.318;4.644;2022-10-16T12:46:38;1.30;;;1.30;;
10150;SDS011;5116;52.318;4.644;2022-10-16T12:48:46;1.40;;;1.30;;
10150;SDS011;5116;52.318;4.644;2022-10-16T13:02:06;2.30;;;1.30;;
10150;SDS011;5116;52.318;4.644;2022-10-16T13:07:14;1.47;;;1.37;;
10150;SDS011;5116;52.318;4.644;2022-10-16T13:09:49;1.57;;;1.47;;
10150;SDS011;5116;52.318;4.644;2022-10-16T13:12:30;1.33;;;1.27;;
10150;SDS011;5116;52.318;4.644;2022-10-16T13:17:44;2.07;;;1.30;;
10150;SDS011;5116;52.318;4.644;2022-10-16T13:28:01;1.40;;;1.30;;
10150;SDS011;5116;52.318;4.644;2022-10-16T13:30:40;1.30;;;1.20;;
10150;SDS011;5116;52.318;4.644;2022-10-16T13:33:15;1.10;;;1.10;;
10150;SDS011;5116;52.318;4.644;2022-10-16T13:35:51;1.10;;;1.10;;
10150;SDS011;5116;52.318;4.644;2022-10-16T13:38:19;1.10;;;1.10;;
10150;SDS011;5116;52.318;4.644;2022-10-16T13:40:57;1.03;;;1.03;;
10150;SDS011;5116;52.318;4.644;2022-10-16T13:43:33;1.10;;;1.10;;
10150;SDS011;5116;52.318;4.644;2022-10-16T13:46:15;1.07;;;1.07;;
10150;SDS011;5116;52.318;4.644;2022-10-16T13:48:42;1.07;;;1.00;;
10150;SDS011;5116;52.318;4.644;2022-10-16T13:51:17;1.10;;;1.10;;
10150;SDS011;5116;52.318;4.644;2022-10-16T13:53:45;1.73;;;1.20;;
10150;SDS011;5116;52.318;4.644;2022-10-16T13:56:17;1.93;;;1.10;;
10150;SDS011;5116;52.318;4.644;2022-10-16T13:58:45;1.30;;;1.20;;
10150;SDS011;5116;52.318;4.644;2022-10-16T14:01:20;1.43;;;1.20;;
10150;SDS011;5116;52.318;4.644;2022-10-16T14:04:00;1.30;;;1.20;;
10150;SDS011;5116;52.318;4.644;2022-10-16T14:06:28;1.47;;;1.37;;
10150;SDS011;5116;52.318;4.644;2022-10-16T14:09:05;1.23;;;1.23;;
10150;SDS011;5116;52.318;4.644;2022-10-16T14:11:37;2.13;;;1.40;;
10150;SDS011;5116;52.318;4.644;2022-10-16T14:14:09;2.57;;;1.67;;
10150;SDS011;5116;52.318;4.644;2022-10-16T14:16:37;1.13;;;1.13;;
10150;SDS011;5116;52.318;4.644;2022-10-16T14:19:13;1.77;;;1.30;;
10150;SDS011;5116;52.318;4.644;2022-10-16T14:21:42;2.07;;;1.30;;
10150;SDS011;5116;52.318;4.644;2022-10-16T14:24:13;1.00;;;1.00;;
10150;SDS011;5116;52.318;4.644;2022-10-16T14:26:42;1.00;;;1.00;;
10150;SDS011;5116;52.318;4.644;2022-10-16T14:29:19;1.10;;;1.10;;
10150;SDS011;5116;52.318;4.644;2022-10-16T14:31:59;1.10;;;1.00;;
10150;SDS011;5116;52.318;4.644;2022-10-16T14:34:31;1.03;;;1.03;;
10150;SDS011;5116;52.318;4.644;2022-10-16T14:37:00;1.00;;;1.00;;
10150;SDS011;5116;52.318;4.644;2022-10-16T14:39:38;1.00;;;1.00;;
10150;SDS011;5116;52.318;4.644;2022-10-16T14:42:16;1.37;;;1.20;;
10150;SDS011;5116;52.318;4.644;2022-10-16T14:44:45;1.73;;;1.23;;
10150;SDS011;5116;52.318;4.644;2022-10-16T14:47:14;1.93;;;1.60;;
10150;SDS011;5116;52.318;4.644;2022-10-16T14:49:42;1.17;;;1.00;;
10150;SDS011;5116;52.318;4.644;2022-10-16T14:52:11;1.00;;;1.00;;
10150;SDS011;5116;52.318;4.644;2022-10-16T14:54:38;1.00;;;1.00;;
10150;SDS011;5116;52.318;4.644;2022-10-16T14:57:06;1.10;;;1.00;;
10150;SDS011;5116;52.318;4.644;2022-10-16T14:59:42;2.63;;;1.17;;
10150;SDS011;5116;52.318;4.644;2022-10-16T15:04:48;1.40;;;1.30;;
10150;SDS011;5116;52.318;4.644;2022-10-16T15:07:16;0.90;;;0.90;;
10150;SDS011;5116;52.318;4.644;2022-10-16T15:09:43;0.90;;;0.90;;
10150;SDS011;5116;52.318;4.644;2022-10-16T15:12:15;2.53;;;1.00;;
10150;SDS011;5116;52.318;4.644;2022-10-16T15:14:42;1.43;;;0.93;;
10150;SDS011;5116;52.318;4.644;2022-10-16T15:17:10;1.70;;;1.10;;
10150;SDS011;5116;52.318;4.644;2022-10-16T15:19:38;0.80;;;0.80;;
10150;SDS011;5116;52.318;4.644;2022-10-16T15:22:05;0.80;;;0.80;;
10150;SDS011;5116;52.318;4.644;2022-10-16T15:24:33;0.70;;;0.70;;
10150;SDS011;5116;52.318;4.644;2022-10-16T15:27:00;0.60;;;0.60;;
10150;SDS011;5116;52.318;4.644;2022-10-16T15:29:28;1.20;;;0.87;;
10150;SDS011;5116;52.318;4.644;2022-10-16T15:31:55;1.53;;;1.03;;
10150;SDS011;5116;52.318;4.644;2022-10-16T15:34:22;0.80;;;0.80;;
10150;SDS011;5116;52.318;4.644;2022-10-16T15:36:49;0.87;;;0.87;;
10150;SDS011;5116;52.318;4.644;2022-10-16T15:39:18;1.00;;;1.00;;
10150;SDS011;5116;52.318;4.644;2022-10-16T15:41:47;0.70;;;0.70;;
10150;SDS011;5116;52.318;4.644;2022-10-16T15:44:17;0.90;;;0.90;;
10150;SDS011;5116;52.318;4.644;2022-10-16T15:46:45;0.80;;;0.80;;
10150;SDS011;5116;52.318;4.644;2022-10-16T15:49:12;0.70;;;0.70;;
10150;SDS011;5116;52.318;4.644;2022-10-16T15:51:40;1.43;;;1.10;;
10150;SDS011;5116;52.318;4.644;2022-10-16T15:54:08;0.80;;;0.80;;
10150;SDS011;5116;52.318;4.644;2022-10-16T15:56:36;0.70;;;0.70;;
10150;SDS011;5116;52.318;4.644;2022-10-16T15:59:04;0.90;;;0.90;;
10150;SDS011;5116;52.318;4.644;2022-10-16T16:01:34;0.87;;;0.87;;
10150;SDS011;5116;52.318;4.644;2022-10-16T16:04:01;1.00;;;1.00;;
10150;SDS011;5116;52.318;4.644;2022-10-16T16:06:40;0.90;;;0.90;;
10150;SDS011;5116;52.318;4.644;2022-10-16T16:09:11;0.80;;;0.80;;
10150;SDS011;5116;52.318;4.644;2022-10-16T16:11:40;1.80;;;1.10;;
10150;SDS011;5116;52.318;4.644;2022-10-16T16:14:09;0.80;;;0.80;;
10150;SDS011;5116;52.318;4.644;2022-10-16T16:16:37;0.90;;;0.90;;
10150;SDS011;5116;52.318;4.644;2022-10-16T16:19:05;0.77;;;0.77;;
10150;SDS011;5116;52.318;4.644;2022-10-16T16:21:37;1.23;;;1.03;;
10150;SDS011;5116;52.318;4.644;2022-10-16T16:24:04;0.70;;;0.70;;
10150;SDS011;5116;52.318;4.644;2022-10-16T16:26:35;0.90;;;0.90;;
10150;SDS011;5116;52.318;4.644;2022-10-16T16:29:06;0.70;;;0.70;;
10150;SDS011;5116;52.318;4.644;2022-10-16T16:31:33;0.80;;;0.80;;
10150;SDS011;5116;52.318;4.644;2022-10-16T16:34:01;1.83;;;1.07;;
10150;SDS011;5116;52.318;4.644;2022-10-16T16:36:28;1.13;;;0.83;;
10150;SDS011;5116;52.318;4.644;2022-10-16T16:38:56;4.47;;;2.57;;
10150;SDS011;5116;52.318;4.644;2022-10-16T16:41:25;1.43;;;1.20;;
10150;SDS011;5116;52.318;4.644;2022-10-16T16:43:53;2.13;;;1.63;;
10150;SDS011;5116;52.318;4.644;2022-10-16T16:46:20;1.63;;;1.40;;
10150;SDS011;5116;52.318;4.644;2022-10-16T16:48:48;1.63;;;1.47;;
10150;SDS011;5116;52.318;4.644;2022-10-16T16:51:17;1.40;;;1.30;;